sensor_id;sensor_type;location;lat;lon;timestamp;P1;durP1;ratioP1;P2;durP2;ratioP2
79399;SDS011;68856;45.586;10.264;2024-01-06T00:00:01;5.68;;;5.18;;
79399;SDS011;68856;45.586;10.264;2024-01-06T00:02:28;3.13;;;2.83;;
79399;SDS011;68856;45.586;10.264;2024-01-06T00:04:54;4.57;;;3.78;;
79399;SDS011;68856;45.586;10.264;2024-01-06T00:07:20;0.77;;;0.77;;
79399;SDS011;68856;45.586;10.264;2024-01-06T00:09:46;0.30;;;0.30;;
79399;SDS011;68856;45.586;10.264;2024-01-06T00:12:13;0.20;;;0.20;;
79399;SDS011;68856;45.586;10.264;2024-01-06T00:14:39;0.20;;;0.20;;
79399;SDS011;68856;45.586;10.264;2024-01-06T00:17:09;0.20;;;0.20;;
79399;SDS011;68856;45.586;10.264;2024-01-06T00:19:35;0.10;;;0.10;;
79399;SDS011;68856;45.586;10.264;2024-01-06T00:22:01;0.10;;;0.10;;
79399;SDS011;68856;45.586;10.264;2024-01-06T00:24:27;0.10;;;0.10;;
79399;SDS011;68856;45.586;10.264;2024-01-06T00:26:54;1.08;;;0.10;;
79399;SDS011;68856;45.586;10.264;2024-01-06T00:29:20;0.10;;;0.10;;
79399;SDS011;68856;45.586;10.264;2024-01-06T00:31:46;0.00;;;0.00;;
79399;SDS011;68856;45.586;10.264;2024-01-06T00:34:12;0.15;;;0.15;;
79399;SDS011;68856;45.586;10.264;2024-01-06T00:36:38;0.20;;;0.20;;
79399;SDS011;68856;45.586;10.264;2024-01-06T00:39:05;0.10;;;0.10;;
79399;SDS011;68856;45.586;10.264;2024-01-06T00:41:31;0.00;;;0.00;;
79399;SDS011;68856;45.586;10.264;2024-01-06T00:43:57;0.10;;;0.10;;
79399;SDS011;68856;45.586;10.264;2024-01-06T00:46:23;0.10;;;0.10;;
79399;SDS011;68856;45.586;10.264;2024-01-06T00:48:50;0.63;;;0.20;;
79399;SDS011;68856;45.586;10.264;2024-01-06T00:51:16;0.20;;;0.20;;
79399;SDS011;68856;45.586;10.264;2024-01-06T00:53:42;0.10;;;0.10;;
79399;SDS011;68856;45.586;10.264;2024-01-06T00:56:08;0.15;;;0.15;;
79399;SDS011;68856;45.586;10.264;2024-01-06T00:58:35;0.10;;;0.10;;
79399;SDS011;68856;45.586;10.264;2024-01-06T01:01:01;0.10;;;0.10;;
79399;SDS011;68856;45.586;10.264;2024-01-06T01:03:27;0.20;;;0.20;;
79399;SDS011;68856;45.586;10.264;2024-01-06T01:05:53;0.10;;;0.10;;
79399;SDS011;68856;45.586;10.264;2024-01-06T01:08:20;0.20;;;0.20;;
79399;SDS011;68856;45.586;10.264;2024-01-06T01:10:46;1.10;;;1.05;;
79399;SDS011;68856;45.586;10.264;2024-01-06T01:13:12;1.20;;;1.10;;
79399;SDS011;68856;45.586;10.264;2024-01-06T01:15:38;0.80;;;0.80;;
79399;SDS011;68856;45.586;10.264;2024-01-06T01:18:05;1.27;;;1.17;;
79399;SDS011;68856;45.586;10.264;2024-01-06T01:20:31;1.25;;;1.15;;
79399;SDS011;68856;45.586;10.264;2024-01-06T01:22:57;3.10;;;2.80;;
79399;SDS011;68856;45.586;10.264;2024-01-06T01:25:23;5.10;;;4.60;;
79399;SDS011;68856;45.586;10.264;2024-01-06T01:27:50;7.43;;;5.95;;
79399;SDS011;68856;45.586;10.264;2024-01-06T01:30:16;10.30;;;9.25;;
79399;SDS011;68856;45.586;10.264;2024-01-06T01:32:43;11.38;;;10.27;;
79399;SDS011;68856;45.586;10.264;2024-01-06T01:35:09;15.23;;;13.20;;
79399;SDS011;68856;45.586;10.264;2024-01-06T01:37:35;17.02;;;13.15;;
79399;SDS011;68856;45.586;10.264;2024-01-06T01:40:01;15.15;;;13.05;;
79399;SDS011;68856;45.586;10.264;2024-01-06T01:42:28;17.45;;;13.90;;
79399;SDS011;68856;45.586;10.264;2024-01-06T01:44:54;17.13;;;14.15;;
79399;SDS011;68856;45.586;10.264;2024-01-06T01:47:21;14.82;;;12.90;;
79399;SDS011;68856;45.586;10.264;2024-01-06T01:49:47;17.05;;;13.45;;
79399;SDS011;68856;45.586;10.264;2024-01-06T01:52:14;14.00;;;12.50;;
79399;SDS011;68856;45.586;10.264;2024-01-06T01:54:41;13.95;;;12.48;;
79399;SDS011;68856;45.586;10.264;2024-01-06T01:57:09;14.02;;;11.57;;
79399;SDS011;68856;45.586;10.264;2024-01-06T01:59:37;15.15;;;11.77;;
79399;SDS011;68856;45.586;10.264;2024-01-06T02:02:04;13.38;;;11.68;;
79399;SDS011;68856;45.586;10.264;2024-01-06T02:04:31;13.23;;;11.70;;
79399;SDS011;68856;45.586;10.264;2024-01-06T02:06:57;14.60;;;11.55;;
79399;SDS011;68856;45.586;10.264;2024-01-06T02:09:23;13.13;;;11.18;;
79399;SDS011;68856;45.586;10.264;2024-01-06T02:11:54;13.00;;;11.55;;
79399;SDS011;68856;45.586;10.264;2024-01-06T02:14:23;12.75;;;11.23;;
79399;SDS011;68856;45.586;10.264;2024-01-06T02:16:49;13.18;;;11.82;;
79399;SDS011;68856;45.586;10.264;2024-01-06T02:19:16;12.82;;;11.52;;
79399;SDS011;68856;45.586;10.264;2024-01-06T02:21:43;13.57;;;11.93;;
79399;SDS011;68856;45.586;10.264;2024-01-06T02:24:13;13.02;;;10.85;;
79399;SDS011;68856;45.586;10.264;2024-01-06T02:26:40;12.73;;;11.25;;
79399;SDS011;68856;45.586;10.264;2024-01-06T02:29:06;13.35;;;11.88;;
79399;SDS011;68856;45.586;10.264;2024-01-06T02:31:32;14.35;;;12.82;;
79399;SDS011;68856;45.586;10.264;2024-01-06T02:33:58;13.48;;;11.75;;
79399;SDS011;68856;45.586;10.264;2024-01-06T02:36:24;13.73;;;11.93;;
79399;SDS011;68856;45.586;10.264;2024-01-06T02:38:51;13.80;;;11.75;;
79399;SDS011;68856;45.586;10.264;2024-01-06T02:41:17;15.27;;;12.20;;
79399;SDS011;68856;45.586;10.264;2024-01-06T02:43:43;13.90;;;11.77;;
79399;SDS011;68856;45.586;10.264;2024-01-06T02:46:09;13.70;;;12.18;;
79399;SDS011;68856;45.586;10.264;2024-01-06T02:48:36;14.85;;;12.18;;
79399;SDS011;68856;45.586;10.264;2024-01-06T02:51:03;14.35;;;12.52;;
79399;SDS011;68856;45.586;10.264;2024-01-06T02:53:29;13.77;;;11.15;;
79399;SDS011;68856;45.586;10.264;2024-01-06T02:55:55;14.35;;;12.45;;
79399;SDS011;68856;45.586;10.264;2024-01-06T02:58:22;13.77;;;12.32;;
79399;SDS011;68856;45.586;10.264;2024-01-06T03:00:48;15.55;;;12.90;;
79399;SDS011;68856;45.586;10.264;2024-01-06T03:03:14;14.57;;;11.95;;
79399;SDS011;68856;45.586;10.264;2024-01-06T03:05:40;13.90;;;11.82;;
79399;SDS011;68856;45.586;10.264;2024-01-06T03:08:07;15.30;;;12.20;;
79399;SDS011;68856;45.586;10.264;2024-01-06T03:10:33;14.13;;;11.85;;
79399;SDS011;68856;45.586;10.264;2024-01-06T03:12:59;14.57;;;11.15;;
79399;SDS011;68856;45.586;10.264;2024-01-06T03:15:25;13.07;;;11.38;;
79399;SDS011;68856;45.586;10.264;2024-01-06T03:17:52;14.40;;;11.90;;
79399;SDS011;68856;45.586;10.264;2024-01-06T03:20:18;15.90;;;13.02;;
79399;SDS011;68856;45.586;10.264;2024-01-06T03:22:44;16.00;;;12.75;;
79399;SDS011;68856;45.586;10.264;2024-01-06T03:25:12;12.82;;;11.50;;
79399;SDS011;68856;45.586;10.264;2024-01-06T03:27:38;13.80;;;11.73;;
79399;SDS011;68856;45.586;10.264;2024-01-06T03:30:04;13.52;;;11.07;;
79399;SDS011;68856;45.586;10.264;2024-01-06T03:32:31;14.35;;;11.98;;
79399;SDS011;68856;45.586;10.264;2024-01-06T03:34:57;13.95;;;12.10;;
79399;SDS011;68856;45.586;10.264;2024-01-06T03:37:24;11.95;;;10.75;;
79399;SDS011;68856;45.586;10.264;2024-01-06T03:39:50;14.18;;;11.55;;
79399;SDS011;68856;45.586;10.264;2024-01-06T03:42:16;14.50;;;11.40;;
79399;SDS011;68856;45.586;10.264;2024-01-06T03:44:43;11.90;;;10.70;;
79399;SDS011;68856;45.586;10.264;2024-01-06T03:47:09;13.13;;;11.18;;
79399;SDS011;68856;45.586;10.264;2024-01-06T03:49:35;12.68;;;11.13;;
79399;SDS011;68856;45.586;10.264;2024-01-06T03:52:01;12.48;;;11.23;;
79399;SDS011;68856;45.586;10.264;2024-01-06T03:54:28;13.18;;;11.80;;
79399;SDS011;68856;45.586;10.264;2024-01-06T03:56:54;16.40;;;12.10;;
79399;SDS011;68856;45.586;10.264;2024-01-06T03:59:21;12.20;;;10.90;;
79399;SDS011;68856;45.586;10.264;2024-01-06T04:01:47;12.10;;;10.80;;
79399;SDS011;68856;45.586;10.264;2024-01-06T04:04:13;12.65;;;11.30;;
79399;SDS011;68856;45.586;10.264;2024-01-06T04:06:39;12.50;;;10.88;;
79399;SDS011;68856;45.586;10.264;2024-01-06T04:09:05;12.63;;;11.00;;
79399;SDS011;68856;45.586;10.264;2024-01-06T04:11:32;10.48;;;9.38;;
79399;SDS011;68856;45.586;10.264;2024-01-06T04:13:58;11.52;;;10.27;;
79399;SDS011;68856;45.586;10.264;2024-01-06T04:16:25;11.50;;;10.30;;
79399;SDS011;68856;45.586;10.264;2024-01-06T04:18:55;10.77;;;9.57;;
79399;SDS011;68856;45.586;10.264;2024-01-06T04:21:21;11.52;;;10.32;;
79399;SDS011;68856;45.586;10.264;2024-01-06T04:23:47;11.52;;;9.80;;
79399;SDS011;68856;45.586;10.264;2024-01-06T04:26:13;10.88;;;9.77;;
79399;SDS011;68856;45.586;10.264;2024-01-06T04:28:40;10.57;;;9.52;;
79399;SDS011;68856;45.586;10.264;2024-01-06T04:31:06;11.57;;;10.38;;
79399;SDS011;68856;45.586;10.264;2024-01-06T04:33:32;11.27;;;9.95;;
79399;SDS011;68856;45.586;10.264;2024-01-06T04:35:58;11.90;;;10.52;;
79399;SDS011;68856;45.586;10.264;2024-01-06T04:38:26;11.50;;;10.30;;
79399;SDS011;68856;45.586;10.264;2024-01-06T04:40:53;12.32;;;10.35;;
79399;SDS011;68856;45.586;10.264;2024-01-06T04:43:19;14.35;;;11.05;;
79399;SDS011;68856;45.586;10.264;2024-01-06T04:45:45;12.95;;;11.27;;
79399;SDS011;68856;45.586;10.264;2024-01-06T04:48:12;15.35;;;11.88;;
79399;SDS011;68856;45.586;10.264;2024-01-06T04:50:38;14.25;;;11.02;;
79399;SDS011;68856;45.586;10.264;2024-01-06T04:53:04;13.73;;;11.18;;
79399;SDS011;68856;45.586;10.264;2024-01-06T04:55:30;12.18;;;10.75;;
79399;SDS011;68856;45.586;10.264;2024-01-06T04:57:57;14.02;;;11.10;;
79399;SDS011;68856;45.586;10.264;2024-01-06T05:00:23;12.90;;;10.23;;
79399;SDS011;68856;45.586;10.264;2024-01-06T05:02:50;13.55;;;11.50;;
79399;SDS011;68856;45.586;10.264;2024-01-06T05:05:16;14.18;;;10.93;;
79399;SDS011;68856;45.586;10.264;2024-01-06T05:07:43;14.50;;;11.07;;
79399;SDS011;68856;45.586;10.264;2024-01-06T05:10:09;14.57;;;11.63;;
79399;SDS011;68856;45.586;10.264;2024-01-06T05:12:35;16.25;;;12.02;;
79399;SDS011;68856;45.586;10.264;2024-01-06T05:15:02;16.15;;;11.75;;
79399;SDS011;68856;45.586;10.264;2024-01-06T05:17:28;19.83;;;11.98;;
79399;SDS011;68856;45.586;10.264;2024-01-06T05:19:55;26.17;;;12.50;;
79399;SDS011;68856;45.586;10.264;2024-01-06T05:22:21;14.13;;;11.70;;
79399;SDS011;68856;45.586;10.264;2024-01-06T05:24:47;16.52;;;13.13;;
79399;SDS011;68856;45.586;10.264;2024-01-06T05:27:18;15.93;;;11.45;;
79399;SDS011;68856;45.586;10.264;2024-01-06T05:29:44;19.45;;;12.68;;
79399;SDS011;68856;45.586;10.264;2024-01-06T05:32:11;25.73;;;13.90;;
79399;SDS011;68856;45.586;10.264;2024-01-06T05:34:37;15.95;;;12.60;;
79399;SDS011;68856;45.586;10.264;2024-01-06T05:37:03;17.48;;;12.77;;
79399;SDS011;68856;45.586;10.264;2024-01-06T05:39:29;17.77;;;12.02;;
79399;SDS011;68856;45.586;10.264;2024-01-06T05:41:56;18.92;;;13.02;;
79399;SDS011;68856;45.586;10.264;2024-01-06T05:44:22;17.52;;;12.38;;
79399;SDS011;68856;45.586;10.264;2024-01-06T05:46:48;15.45;;;12.38;;
79399;SDS011;68856;45.586;10.264;2024-01-06T05:49:16;19.20;;;13.18;;
79399;SDS011;68856;45.586;10.264;2024-01-06T05:51:45;17.77;;;12.98;;
79399;SDS011;68856;45.586;10.264;2024-01-06T05:54:11;20.15;;;12.23;;
79399;SDS011;68856;45.586;10.264;2024-01-06T05:56:38;21.02;;;14.65;;
79399;SDS011;68856;45.586;10.264;2024-01-06T05:59:04;21.85;;;15.32;;
79399;SDS011;68856;45.586;10.264;2024-01-06T06:01:30;28.83;;;15.38;;
79399;SDS011;68856;45.586;10.264;2024-01-06T06:03:57;21.67;;;15.32;;
79399;SDS011;68856;45.586;10.264;2024-01-06T06:06:23;17.02;;;13.43;;
79399;SDS011;68856;45.586;10.264;2024-01-06T06:08:49;18.30;;;12.90;;
79399;SDS011;68856;45.586;10.264;2024-01-06T06:11:15;17.50;;;12.30;;
79399;SDS011;68856;45.586;10.264;2024-01-06T06:13:42;20.42;;;14.73;;
79399;SDS011;68856;45.586;10.264;2024-01-06T06:16:09;18.27;;;13.50;;
79399;SDS011;68856;45.586;10.264;2024-01-06T06:18:37;17.23;;;13.35;;
79399;SDS011;68856;45.586;10.264;2024-01-06T06:21:04;27.45;;;19.13;;
79399;SDS011;68856;45.586;10.264;2024-01-06T06:23:31;26.35;;;17.58;;
79399;SDS011;68856;45.586;10.264;2024-01-06T06:25:57;21.80;;;15.35;;
79399;SDS011;68856;45.586;10.264;2024-01-06T06:28:24;17.63;;;12.15;;
79399;SDS011;68856;45.586;10.264;2024-01-06T06:30:51;16.13;;;12.60;;
79399;SDS011;68856;45.586;10.264;2024-01-06T06:33:18;17.05;;;13.20;;
79399;SDS011;68856;45.586;10.264;2024-01-06T06:35:44;16.08;;;13.00;;
79399;SDS011;68856;45.586;10.264;2024-01-06T06:38:10;19.38;;;12.73;;
79399;SDS011;68856;45.586;10.264;2024-01-06T06:40:36;16.52;;;12.70;;
79399;SDS011;68856;45.586;10.264;2024-01-06T06:43:03;19.75;;;14.25;;
79399;SDS011;68856;45.586;10.264;2024-01-06T06:45:29;18.23;;;13.40;;
79399;SDS011;68856;45.586;10.264;2024-01-06T06:47:55;17.45;;;13.90;;
79399;SDS011;68856;45.586;10.264;2024-01-06T06:50:21;18.63;;;14.30;;
79399;SDS011;68856;45.586;10.264;2024-01-06T06:52:48;18.60;;;14.40;;
79399;SDS011;68856;45.586;10.264;2024-01-06T06:55:14;17.88;;;13.30;;
79399;SDS011;68856;45.586;10.264;2024-01-06T06:57:40;16.77;;;12.90;;
79399;SDS011;68856;45.586;10.264;2024-01-06T07:00:07;17.90;;;14.45;;
79399;SDS011;68856;45.586;10.264;2024-01-06T07:02:33;19.73;;;14.68;;
79399;SDS011;68856;45.586;10.264;2024-01-06T07:05:00;20.15;;;14.13;;
79399;SDS011;68856;45.586;10.264;2024-01-06T07:07:26;19.35;;;14.68;;
79399;SDS011;68856;45.586;10.264;2024-01-06T07:09:52;16.67;;;13.63;;
79399;SDS011;68856;45.586;10.264;2024-01-06T07:12:19;18.17;;;14.00;;
79399;SDS011;68856;45.586;10.264;2024-01-06T07:14:45;19.38;;;14.18;;
79399;SDS011;68856;45.586;10.264;2024-01-06T07:17:12;17.55;;;14.13;;
79399;SDS011;68856;45.586;10.264;2024-01-06T07:19:38;18.75;;;13.57;;
79399;SDS011;68856;45.586;10.264;2024-01-06T07:22:04;18.27;;;15.15;;
79399;SDS011;68856;45.586;10.264;2024-01-06T07:24:31;18.55;;;14.65;;
79399;SDS011;68856;45.586;10.264;2024-01-06T07:26:57;16.77;;;13.23;;
79399;SDS011;68856;45.586;10.264;2024-01-06T07:29:23;16.60;;;13.40;;
79399;SDS011;68856;45.586;10.264;2024-01-06T07:31:49;20.35;;;14.43;;
79399;SDS011;68856;45.586;10.264;2024-01-06T07:34:16;20.48;;;15.38;;
79399;SDS011;68856;45.586;10.264;2024-01-06T07:36:42;18.80;;;14.60;;
79399;SDS011;68856;45.586;10.264;2024-01-06T07:39:08;17.60;;;14.00;;
79399;SDS011;68856;45.586;10.264;2024-01-06T07:41:34;18.40;;;14.50;;
79399;SDS011;68856;45.586;10.264;2024-01-06T07:44:01;17.77;;;13.88;;
79399;SDS011;68856;45.586;10.264;2024-01-06T07:46:30;19.85;;;14.07;;
79399;SDS011;68856;45.586;10.264;2024-01-06T07:48:57;17.20;;;13.57;;
79399;SDS011;68856;45.586;10.264;2024-01-06T07:51:23;17.27;;;13.23;;
79399;SDS011;68856;45.586;10.264;2024-01-06T07:53:50;14.88;;;12.57;;
79399;SDS011;68856;45.586;10.264;2024-01-06T07:56:16;19.80;;;14.15;;
79399;SDS011;68856;45.586;10.264;2024-01-06T07:58:43;17.55;;;13.75;;
79399;SDS011;68856;45.586;10.264;2024-01-06T08:01:09;18.88;;;14.85;;
79399;SDS011;68856;45.586;10.264;2024-01-06T08:03:35;22.90;;;17.85;;
79399;SDS011;68856;45.586;10.264;2024-01-06T08:06:02;20.20;;;14.25;;
79399;SDS011;68856;45.586;10.264;2024-01-06T08:08:28;21.65;;;15.35;;
79399;SDS011;68856;45.586;10.264;2024-01-06T08:10:54;20.52;;;14.70;;
79399;SDS011;68856;45.586;10.264;2024-01-06T08:13:20;18.35;;;14.20;;
79399;SDS011;68856;45.586;10.264;2024-01-06T08:15:47;18.83;;;14.20;;
79399;SDS011;68856;45.586;10.264;2024-01-06T08:18:13;19.08;;;14.63;;
79399;SDS011;68856;45.586;10.264;2024-01-06T08:20:39;19.45;;;14.93;;
79399;SDS011;68856;45.586;10.264;2024-01-06T08:23:06;20.65;;;14.98;;
79399;SDS011;68856;45.586;10.264;2024-01-06T08:25:32;18.20;;;14.15;;
79399;SDS011;68856;45.586;10.264;2024-01-06T08:27:58;21.63;;;15.80;;
79399;SDS011;68856;45.586;10.264;2024-01-06T08:30:25;20.58;;;15.43;;
79399;SDS011;68856;45.586;10.264;2024-01-06T08:32:51;21.42;;;15.50;;
79399;SDS011;68856;45.586;10.264;2024-01-06T08:35:18;23.55;;;15.40;;
79399;SDS011;68856;45.586;10.264;2024-01-06T08:37:44;22.83;;;16.33;;
79399;SDS011;68856;45.586;10.264;2024-01-06T08:40:11;23.33;;;16.95;;
79399;SDS011;68856;45.586;10.264;2024-01-06T08:42:37;22.05;;;15.60;;
79399;SDS011;68856;45.586;10.264;2024-01-06T08:45:04;24.45;;;16.45;;
79399;SDS011;68856;45.586;10.264;2024-01-06T08:47:31;29.30;;;15.52;;
79399;SDS011;68856;45.586;10.264;2024-01-06T08:49:57;24.55;;;14.48;;
79399;SDS011;68856;45.586;10.264;2024-01-06T08:52:23;60.45;;;17.13;;
79399;SDS011;68856;45.586;10.264;2024-01-06T08:54:50;35.92;;;16.38;;
79399;SDS011;68856;45.586;10.264;2024-01-06T08:57:16;22.27;;;14.98;;
79399;SDS011;68856;45.586;10.264;2024-01-06T08:59:43;43.90;;;17.55;;
79399;SDS011;68856;45.586;10.264;2024-01-06T09:02:10;27.27;;;15.60;;
79399;SDS011;68856;45.586;10.264;2024-01-06T09:04:36;23.13;;;16.45;;
79399;SDS011;68856;45.586;10.264;2024-01-06T09:07:03;30.42;;;18.58;;
79399;SDS011;68856;45.586;10.264;2024-01-06T09:09:30;31.42;;;17.65;;
79399;SDS011;68856;45.586;10.264;2024-01-06T09:11:56;40.85;;;18.65;;
79399;SDS011;68856;45.586;10.264;2024-01-06T09:14:23;44.60;;;19.08;;
79399;SDS011;68856;45.586;10.264;2024-01-06T09:16:49;51.75;;;18.40;;
79399;SDS011;68856;45.586;10.264;2024-01-06T09:19:15;36.53;;;17.35;;
79399;SDS011;68856;45.586;10.264;2024-01-06T09:21:41;48.28;;;17.75;;
79399;SDS011;68856;45.586;10.264;2024-01-06T09:24:08;34.22;;;17.20;;
79399;SDS011;68856;45.586;10.264;2024-01-06T09:26:34;33.63;;;18.67;;
79399;SDS011;68856;45.586;10.264;2024-01-06T09:29:00;35.95;;;19.42;;
79399;SDS011;68856;45.586;10.264;2024-01-06T09:31:27;78.97;;;19.90;;
79399;SDS011;68856;45.586;10.264;2024-01-06T09:33:54;82.57;;;21.42;;
79399;SDS011;68856;45.586;10.264;2024-01-06T09:36:20;58.45;;;19.75;;
79399;SDS011;68856;45.586;10.264;2024-01-06T09:38:47;43.85;;;18.30;;
79399;SDS011;68856;45.586;10.264;2024-01-06T09:41:13;75.88;;;20.10;;
79399;SDS011;68856;45.586;10.264;2024-01-06T09:43:39;45.08;;;18.27;;
79399;SDS011;68856;45.586;10.264;2024-01-06T09:46:24;35.45;;;18.80;;
79399;SDS011;68856;45.586;10.264;2024-01-06T09:48:55;59.30;;;19.90;;
79399;SDS011;68856;45.586;10.264;2024-01-06T09:51:23;39.92;;;19.45;;
79399;SDS011;68856;45.586;10.264;2024-01-06T09:56:27;58.30;;;19.52;;
79399;SDS011;68856;45.586;10.264;2024-01-06T09:58:54;34.13;;;18.42;;
79399;SDS011;68856;45.586;10.264;2024-01-06T10:01:21;33.53;;;19.27;;
79399;SDS011;68856;45.586;10.264;2024-01-06T10:03:48;50.55;;;20.83;;
79399;SDS011;68856;45.586;10.264;2024-01-06T10:06:15;69.38;;;21.65;;
79399;SDS011;68856;45.586;10.264;2024-01-06T10:08:42;60.28;;;22.42;;
79399;SDS011;68856;45.586;10.264;2024-01-06T10:11:16;42.53;;;20.15;;
79399;SDS011;68856;45.586;10.264;2024-01-06T10:16:14;41.17;;;22.20;;
79399;SDS011;68856;45.586;10.264;2024-01-06T10:18:40;37.13;;;20.85;;
79399;SDS011;68856;45.586;10.264;2024-01-06T10:21:09;37.00;;;21.35;;
79399;SDS011;68856;45.586;10.264;2024-01-06T10:23:35;33.05;;;19.63;;
79399;SDS011;68856;45.586;10.264;2024-01-06T10:26:02;31.35;;;18.80;;
79399;SDS011;68856;45.586;10.264;2024-01-06T10:28:28;28.58;;;18.85;;
79399;SDS011;68856;45.586;10.264;2024-01-06T10:30:55;28.45;;;18.13;;
79399;SDS011;68856;45.586;10.264;2024-01-06T10:33:22;28.92;;;17.63;;
79399;SDS011;68856;45.586;10.264;2024-01-06T10:35:50;29.27;;;18.95;;
79399;SDS011;68856;45.586;10.264;2024-01-06T10:38:17;27.67;;;18.45;;
79399;SDS011;68856;45.586;10.264;2024-01-06T10:41:05;29.40;;;19.48;;
79399;SDS011;68856;45.586;10.264;2024-01-06T10:43:35;31.10;;;19.63;;
79399;SDS011;68856;45.586;10.264;2024-01-06T10:46:12;39.83;;;23.60;;
79399;SDS011;68856;45.586;10.264;2024-01-06T10:48:41;39.67;;;23.95;;
79399;SDS011;68856;45.586;10.264;2024-01-06T10:51:11;43.70;;;25.75;;
79399;SDS011;68856;45.586;10.264;2024-01-06T10:53:42;30.83;;;18.67;;
79399;SDS011;68856;45.586;10.264;2024-01-06T10:56:09;29.70;;;20.27;;
79399;SDS011;68856;45.586;10.264;2024-01-06T10:58:36;29.45;;;19.08;;
79399;SDS011;68856;45.586;10.264;2024-01-06T11:01:11;30.67;;;20.20;;
79399;SDS011;68856;45.586;10.264;2024-01-06T11:03:38;31.35;;;20.27;;
79399;SDS011;68856;45.586;10.264;2024-01-06T11:06:05;33.20;;;21.63;;
79399;SDS011;68856;45.586;10.264;2024-01-06T11:08:36;31.90;;;21.88;;
79399;SDS011;68856;45.586;10.264;2024-01-06T11:11:17;35.05;;;22.50;;
79399;SDS011;68856;45.586;10.264;2024-01-06T11:13:47;44.45;;;30.13;;
79399;SDS011;68856;45.586;10.264;2024-01-06T11:16:33;44.58;;;30.77;;
79399;SDS011;68856;45.586;10.264;2024-01-06T11:19:00;42.22;;;27.40;;
79399;SDS011;68856;45.586;10.264;2024-01-06T11:21:27;40.83;;;27.23;;
79399;SDS011;68856;45.586;10.264;2024-01-06T11:26:44;45.60;;;32.22;;
79399;SDS011;68856;45.586;10.264;2024-01-06T11:29:14;39.70;;;26.20;;
79399;SDS011;68856;45.586;10.264;2024-01-06T11:31:40;38.60;;;25.95;;
79399;SDS011;68856;45.586;10.264;2024-01-06T11:34:17;38.70;;;25.25;;
79399;SDS011;68856;45.586;10.264;2024-01-06T11:36:49;38.33;;;25.80;;
79399;SDS011;68856;45.586;10.264;2024-01-06T11:42:07;34.50;;;24.67;;
79399;SDS011;68856;45.586;10.264;2024-01-06T11:44:39;34.08;;;22.08;;
79399;SDS011;68856;45.586;10.264;2024-01-06T11:49:36;34.63;;;23.13;;
79399;SDS011;68856;45.586;10.264;2024-01-06T11:52:03;37.83;;;24.92;;
79399;SDS011;68856;45.586;10.264;2024-01-06T11:54:30;36.72;;;23.45;;
79399;SDS011;68856;45.586;10.264;2024-01-06T11:56:57;34.80;;;23.60;;
79399;SDS011;68856;45.586;10.264;2024-01-06T11:59:23;36.45;;;24.90;;
79399;SDS011;68856;45.586;10.264;2024-01-06T12:01:49;38.95;;;25.30;;
79399;SDS011;68856;45.586;10.264;2024-01-06T12:04:16;34.80;;;23.38;;
79399;SDS011;68856;45.586;10.264;2024-01-06T12:06:43;34.35;;;23.58;;
79399;SDS011;68856;45.586;10.264;2024-01-06T12:09:12;28.90;;;20.83;;
79399;SDS011;68856;45.586;10.264;2024-01-06T12:11:42;31.60;;;21.70;;
79399;SDS011;68856;45.586;10.264;2024-01-06T12:14:12;28.67;;;20.23;;
79399;SDS011;68856;45.586;10.264;2024-01-06T12:16:38;26.73;;;18.45;;
79399;SDS011;68856;45.586;10.264;2024-01-06T12:19:04;20.20;;;14.30;;
79399;SDS011;68856;45.586;10.264;2024-01-06T12:21:31;20.20;;;14.05;;
79399;SDS011;68856;45.586;10.264;2024-01-06T12:24:20;22.40;;;15.38;;
79399;SDS011;68856;45.586;10.264;2024-01-06T12:26:47;24.63;;;18.00;;
79399;SDS011;68856;45.586;10.264;2024-01-06T12:29:14;26.83;;;18.23;;
79399;SDS011;68856;45.586;10.264;2024-01-06T12:31:41;25.48;;;18.05;;
79399;SDS011;68856;45.586;10.264;2024-01-06T12:34:09;29.10;;;20.25;;
79399;SDS011;68856;45.586;10.264;2024-01-06T12:36:39;29.52;;;20.08;;
79399;SDS011;68856;45.586;10.264;2024-01-06T12:39:10;29.83;;;19.90;;
79399;SDS011;68856;45.586;10.264;2024-01-06T12:41:38;27.13;;;18.67;;
79399;SDS011;68856;45.586;10.264;2024-01-06T12:44:08;29.03;;;19.50;;
79399;SDS011;68856;45.586;10.264;2024-01-06T12:46:35;32.10;;;20.88;;
79399;SDS011;68856;45.586;10.264;2024-01-06T12:49:01;32.22;;;20.55;;
79399;SDS011;68856;45.586;10.264;2024-01-06T12:51:28;30.25;;;20.88;;
79399;SDS011;68856;45.586;10.264;2024-01-06T12:53:55;28.35;;;20.20;;
79399;SDS011;68856;45.586;10.264;2024-01-06T12:56:21;28.65;;;20.00;;
79399;SDS011;68856;45.586;10.264;2024-01-06T12:58:48;29.77;;;20.48;;
79399;SDS011;68856;45.586;10.264;2024-01-06T13:01:14;27.63;;;19.45;;
79399;SDS011;68856;45.586;10.264;2024-01-06T13:03:40;32.20;;;21.23;;
79399;SDS011;68856;45.586;10.264;2024-01-06T13:06:06;30.27;;;20.20;;
79399;SDS011;68856;45.586;10.264;2024-01-06T13:08:33;29.88;;;19.98;;
79399;SDS011;68856;45.586;10.264;2024-01-06T13:10:59;27.80;;;20.00;;
79399;SDS011;68856;45.586;10.264;2024-01-06T13:13:25;31.73;;;21.15;;
79399;SDS011;68856;45.586;10.264;2024-01-06T13:15:52;33.33;;;22.23;;
79399;SDS011;68856;45.586;10.264;2024-01-06T13:18:19;34.13;;;21.92;;
79399;SDS011;68856;45.586;10.264;2024-01-06T13:20:45;31.55;;;22.95;;
79399;SDS011;68856;45.586;10.264;2024-01-06T13:23:11;31.45;;;21.40;;
79399;SDS011;68856;45.586;10.264;2024-01-06T13:25:37;31.35;;;21.83;;
79399;SDS011;68856;45.586;10.264;2024-01-06T13:28:05;28.83;;;20.48;;
79399;SDS011;68856;45.586;10.264;2024-01-06T13:30:31;34.35;;;22.52;;
79399;SDS011;68856;45.586;10.264;2024-01-06T13:32:58;36.33;;;22.63;;
79399;SDS011;68856;45.586;10.264;2024-01-06T13:35:25;35.15;;;22.50;;
79399;SDS011;68856;45.586;10.264;2024-01-06T13:37:52;31.77;;;21.92;;
79399;SDS011;68856;45.586;10.264;2024-01-06T13:40:19;31.52;;;21.85;;
79399;SDS011;68856;45.586;10.264;2024-01-06T13:42:49;35.35;;;21.90;;
79399;SDS011;68856;45.586;10.264;2024-01-06T13:45:16;33.17;;;21.83;;
79399;SDS011;68856;45.586;10.264;2024-01-06T13:47:43;34.13;;;21.58;;
79399;SDS011;68856;45.586;10.264;2024-01-06T13:50:15;34.83;;;20.63;;
79399;SDS011;68856;45.586;10.264;2024-01-06T13:52:42;31.48;;;21.02;;
79399;SDS011;68856;45.586;10.264;2024-01-06T13:55:10;31.33;;;21.13;;
79399;SDS011;68856;45.586;10.264;2024-01-06T13:57:37;32.83;;;21.63;;
79399;SDS011;68856;45.586;10.264;2024-01-06T14:00:09;31.45;;;20.30;;
79399;SDS011;68856;45.586;10.264;2024-01-06T14:02:36;31.67;;;21.48;;
79399;SDS011;68856;45.586;10.264;2024-01-06T14:05:03;29.45;;;20.90;;
79399;SDS011;68856;45.586;10.264;2024-01-06T14:07:33;32.22;;;22.15;;
79399;SDS011;68856;45.586;10.264;2024-01-06T14:10:00;35.40;;;26.35;;
79399;SDS011;68856;45.586;10.264;2024-01-06T14:12:28;29.52;;;19.50;;
79399;SDS011;68856;45.586;10.264;2024-01-06T14:14:56;29.73;;;20.23;;
79399;SDS011;68856;45.586;10.264;2024-01-06T14:17:22;30.02;;;20.30;;
79399;SDS011;68856;45.586;10.264;2024-01-06T14:19:48;30.13;;;20.05;;
79399;SDS011;68856;45.586;10.264;2024-01-06T14:22:14;31.38;;;21.25;;